createdAt,value
2019-05-26T00:00:01.433Z,90.06
2019-05-26T00:05:01.583Z,90.6
2019-05-26T00:10:02.291Z,90.51
2019-05-26T00:15:01.572Z,91.06
2019-05-26T00:20:01.713Z,90.94
2019-05-26T00:25:01.817Z,91.05
2019-05-26T00:30:01.953Z,91.13
2019-05-26T00:35:02.205Z,90.55
2019-05-26T00:40:01.413Z,89.68
2019-05-26T00:45:01.671Z,88.58
2019-05-26T00:50:01.838Z,87.71
2019-05-26T00:55:02.133Z,87.64
2019-05-26T01:00:01.378Z,87.91
2019-05-26T01:05:01.613Z,88.17
2019-05-26T01:10:01.787Z,88.17
2019-05-26T01:15:02.058Z,88.36
2019-05-26T01:20:02.015Z,88.39
2019-05-26T01:25:01.159Z,88.58
2019-05-26T01:30:01.285Z,89
2019-05-26T01:35:01.473Z,88.62
2019-05-26T01:40:01.604Z,88.63
2019-05-26T01:45:01.768Z,88.6
2019-05-26T01:50:01.904Z,88.75
2019-05-26T01:55:02.058Z,89.37
2019-05-26T02:00:01.184Z,89.56
2019-05-26T02:05:01.339Z,89.94
2019-05-26T02:10:01.476Z,90.2
2019-05-26T02:15:01.638Z,90.56
2019-05-26T02:20:02.009Z,90.93
2019-05-26T02:25:01.128Z,90.97
2019-05-26T02:30:01.280Z,91.41
2019-05-26T02:35:01.422Z,91.9
2019-05-26T02:40:01.760Z,92.27
2019-05-26T02:45:01.923Z,92.67
2019-05-26T02:50:02.064Z,92.98
2019-05-26T02:55:01.217Z,93.19
2019-05-26T03:00:01.313Z,93.61
2019-05-26T03:05:01.458Z,94.19
2019-05-26T03:10:01.597Z,94.47
2019-05-26T03:15:01.901Z,94.38
2019-05-26T03:20:02.072Z,94.12
2019-05-26T03:25:01.249Z,94.26
2019-05-26T03:30:01.399Z,94.49
2019-05-26T03:35:01.593Z,94.54
2019-05-26T03:40:01.740Z,94.87
2019-05-26T03:45:01.873Z,95.07
2019-05-26T03:50:02.005Z,95.15
2019-05-26T03:55:01.169Z,95.23
2019-05-26T04:00:01.334Z,95.25
2019-05-26T04:05:01.498Z,95.2
2019-05-26T04:10:05.564Z,95.28
2019-05-26T04:15:01.362Z,95.48
2019-05-26T04:20:01.509Z,95.31
2019-05-26T04:25:01.641Z,95.23
2019-05-26T04:30:01.753Z,95.25
2019-05-26T04:35:02.070Z,95.25
2019-05-26T04:40:01.198Z,95.22
2019-05-26T04:45:01.345Z,94.67
2019-05-26T04:50:01.827Z,94.1
2019-05-26T04:55:01.437Z,92.65
2019-05-26T05:00:01.580Z,91.09
2019-05-26T05:05:01.756Z,88.45
2019-05-26T05:10:01.900Z,85.95
2019-05-26T05:15:02.067Z,83.84
2019-05-26T05:20:01.203Z,81.76
2019-05-26T05:25:01.330Z,80.44
2019-05-26T05:30:01.522Z,80.23
2019-05-26T05:35:01.683Z,78.92
2019-05-26T05:40:01.826Z,77.58
2019-05-26T05:45:02.050Z,77.22
2019-05-26T05:50:01.216Z,76.82
2019-05-26T05:55:01.380Z,74.3
2019-05-26T06:00:01.523Z,73.88
2019-05-26T06:05:01.652Z,73.56
2019-05-26T06:10:01.802Z,75.1
2019-05-26T06:15:01.959Z,74.58
2019-05-26T06:20:02.145Z,75.77
2019-05-26T06:25:01.286Z,75.62
2019-05-26T06:30:01.415Z,72.97
2019-05-26T06:35:01.555Z,71.77
2019-05-26T06:40:01.703Z,72.78
2019-05-26T06:45:01.822Z,69.5
2019-05-26T06:50:01.965Z,70.79
2019-05-26T06:55:02.134Z,68.61
2019-05-26T07:00:01.274Z,69.02
2019-05-26T07:05:01.424Z,67.92
2019-05-26T07:10:01.552Z,67.8
2019-05-26T07:15:01.721Z,67.41
2019-05-26T07:20:01.866Z,67.21
2019-05-26T07:25:02.011Z,67.91
2019-05-26T07:30:01.156Z,67.28
2019-05-26T07:35:01.374Z,65.74
2019-05-26T07:40:01.515Z,65.93
2019-05-26T07:45:01.666Z,65.51
2019-05-26T07:50:01.805Z,64.55
2019-05-26T07:55:01.974Z,66.2
2019-05-26T08:00:02.112Z,63.74
2019-05-26T08:05:01.279Z,64.6
2019-05-26T08:10:01.517Z,66.97
2019-05-26T08:15:01.728Z,62.52
2019-05-26T08:20:01.886Z,56.08
2019-05-26T08:25:01.997Z,59.55
2019-05-26T08:30:01.119Z,59.55
2019-05-26T08:35:01.306Z,62.84
2019-05-26T08:40:01.463Z,60.11
2019-05-26T08:45:01.616Z,58.21
2019-05-26T08:50:01.761Z,57.06
2019-05-26T08:55:01.928Z,56.21
2019-05-26T09:00:02.074Z,58.44
2019-05-26T09:05:01.268Z,57.18
2019-05-26T09:10:01.437Z,54.05
2019-05-26T09:15:01.602Z,54.07
2019-05-26T09:20:01.743Z,55.55
2019-05-26T09:25:02.033Z,53.21
2019-05-26T09:30:01.226Z,52.03
2019-05-26T09:35:01.406Z,46.52
2019-05-26T09:40:01.536Z,45.03
2019-05-26T09:45:01.676Z,45.94
2019-05-26T09:50:01.815Z,45.43
2019-05-26T09:55:01.978Z,43.66
2019-05-26T10:00:02.115Z,45.17
2019-05-26T10:05:01.301Z,45.69
2019-05-26T10:10:01.443Z,49.22
2019-05-26T10:15:01.630Z,47.13
2019-05-26T10:20:01.788Z,45.87
2019-05-26T10:25:01.919Z,46
2019-05-26T10:30:02.046Z,47.68
2019-05-26T10:35:01.191Z,46.89
2019-05-26T10:40:01.318Z,45.3
2019-05-26T10:45:01.440Z,47.68
2019-05-26T10:50:01.575Z,49.66
2019-05-26T10:55:01.705Z,54.4
2019-05-26T11:00:02.133Z,52.57
2019-05-26T11:05:01.444Z,55.26
2019-05-26T11:10:01.548Z,55.75
2019-05-26T11:15:01.712Z,53.5
2019-05-26T11:20:01.856Z,55
2019-05-26T11:25:01.963Z,58.48
2019-05-26T11:30:02.127Z,55.17
2019-05-26T11:35:02.089Z,54.6
2019-05-26T11:40:01.573Z,55.76
2019-05-26T11:45:01.713Z,57.48
2019-05-26T11:50:01.866Z,56.57
2019-05-26T11:55:01.972Z,61.82
2019-05-26T12:00:02.543Z,57.3
2019-05-26T12:05:01.301Z,61.24
2019-05-26T12:10:01.462Z,57.33
2019-05-26T12:15:01.596Z,57.92
2019-05-26T12:20:05.010Z,60.54
2019-05-26T12:25:01.609Z,60.77
2019-05-26T12:30:01.906Z,56.64
2019-05-26T12:35:02.050Z,62.09
2019-05-26T12:40:01.189Z,58.44
2019-05-26T12:45:01.313Z,61.76
2019-05-26T12:50:01.531Z,62.82
2019-05-26T12:55:01.759Z,61.9
2019-05-26T13:00:02.253Z,63.07
2019-05-26T13:05:01.564Z,64.95
2019-05-26T13:10:01.699Z,64.67
2019-05-26T13:15:05.941Z,65
2019-05-26T13:20:01.560Z,64.33
2019-05-26T13:25:01.958Z,66.77
2019-05-26T13:30:02.145Z,70.6
2019-05-26T13:35:01.296Z,68.83
2019-05-26T13:40:01.441Z,67.51
2019-05-26T13:45:01.582Z,65.87
2019-05-26T13:50:01.747Z,63.81
2019-05-26T13:55:01.845Z,62.81
2019-05-26T14:00:02.064Z,63.89
2019-05-26T14:05:01.322Z,65.32
2019-05-26T14:10:01.498Z,60.01
2019-05-26T14:15:01.626Z,61.32
2019-05-26T14:20:01.819Z,61.49
2019-05-26T14:25:01.943Z,62.48
2019-05-26T14:30:02.085Z,60.26
2019-05-26T14:35:01.284Z,62.73
2019-05-26T14:40:01.433Z,62.53
2019-05-26T14:45:04.110Z,62.19
2019-05-26T14:50:01.511Z,59.11
2019-05-26T14:55:01.622Z,61.15
2019-05-26T15:00:01.792Z,60.39
2019-05-26T15:05:01.933Z,63.88
2019-05-26T15:10:02.145Z,61.24
2019-05-26T15:15:01.286Z,63.57
2019-05-26T15:20:01.425Z,64.2
2019-05-26T15:25:01.583Z,63.82
2019-05-26T15:30:01.747Z,65.89
2019-05-26T15:35:01.919Z,65.75
2019-05-26T15:40:02.056Z,66.47
2019-05-26T15:45:01.182Z,66.42
2019-05-26T15:50:01.297Z,67.68
2019-05-26T15:55:01.453Z,67.04
2019-05-26T16:00:01.612Z,66.95
2019-05-26T16:05:01.710Z,68.94
2019-05-26T16:10:02.003Z,68.11
2019-05-26T16:15:01.156Z,67.42
2019-05-26T16:20:01.330Z,68.34
2019-05-26T16:25:01.460Z,68.47
2019-05-26T16:30:01.605Z,69.88
2019-05-26T16:35:01.713Z,70.63
2019-05-26T16:40:01.853Z,70.21
2019-05-26T16:45:01.988Z,70.64
2019-05-26T16:50:01.166Z,68.47
2019-05-26T16:55:01.301Z,69.77
2019-05-26T17:00:01.408Z,69.24
2019-05-26T17:05:01.551Z,70.56
2019-05-26T17:10:01.697Z,72.86
2019-05-26T17:15:01.821Z,72.22
2019-05-26T17:20:01.941Z,73.43
2019-05-26T17:25:02.105Z,72.91
2019-05-26T17:30:01.227Z,74.52
2019-05-26T17:35:01.405Z,72.87
2019-05-26T17:40:05.411Z,73.07
2019-05-26T17:45:02.117Z,73.75
2019-05-26T17:50:01.345Z,73.18
2019-05-26T17:55:01.492Z,72.35
2019-05-26T18:00:01.755Z,72.99
2019-05-26T18:05:01.897Z,72.46
2019-05-26T18:10:02.034Z,74.12
2019-05-26T18:15:01.260Z,73.33
2019-05-26T18:20:01.445Z,71.52
2019-05-26T18:25:01.732Z,69.84
2019-05-26T18:30:01.896Z,68.73
2019-05-26T18:35:02.061Z,71.12
2019-05-26T18:40:01.186Z,69.53
2019-05-26T18:45:01.344Z,68.93
2019-05-26T18:50:01.481Z,68.6
2019-05-26T18:55:01.583Z,67.31
2019-05-26T19:00:01.793Z,67.36
2019-05-26T19:05:01.938Z,68.43
2019-05-26T19:10:02.071Z,68.56
2019-05-26T19:15:01.211Z,70.18
2019-05-26T19:20:14.911Z,69.13
2019-05-26T19:25:01.590Z,70.17
2019-05-26T19:30:02.104Z,71.52
2019-05-26T19:35:01.444Z,72.25
2019-05-26T19:40:01.609Z,73.03
2019-05-26T19:45:01.738Z,74.02
2019-05-26T19:50:01.841Z,74.41
2019-05-26T19:55:02.237Z,74.69
2019-05-26T20:00:01.397Z,75.76
2019-05-26T20:05:01.522Z,76.33
2019-05-26T20:10:01.922Z,76.16
2019-05-26T20:15:01.554Z,76.6
2019-05-26T20:20:01.659Z,76.68
2019-05-26T20:25:01.835Z,77.01
2019-05-26T20:30:01.959Z,77.44
2019-05-26T20:35:01.082Z,77.38
2019-05-26T20:40:01.182Z,77.93
2019-05-26T20:45:01.385Z,78.7
2019-05-26T20:50:01.475Z,79.38
2019-05-26T20:55:01.572Z,79.68
2019-05-26T21:00:01.846Z,80.26
2019-05-26T21:05:01.225Z,80.6
2019-05-26T21:10:01.318Z,80.84
2019-05-26T21:15:01.454Z,80.46
2019-05-26T21:20:01.574Z,80.99
2019-05-26T21:25:01.707Z,80.91
2019-05-26T21:30:01.815Z,81.16
2019-05-26T21:35:01.924Z,79.07
2019-05-26T21:40:02.024Z,78.27
2019-05-26T21:45:01.149Z,77.01
2019-05-26T21:50:01.280Z,75.87
2019-05-26T21:55:01.387Z,75.13
2019-05-26T22:00:01.526Z,75.75
2019-05-26T22:05:01.656Z,76.04
2019-05-26T22:10:01.785Z,76
2019-05-26T22:15:01.908Z,75.91
2019-05-26T22:20:02.072Z,76.06
2019-05-26T22:25:01.219Z,77.01
2019-05-26T22:30:01.321Z,77.18
2019-05-26T22:35:01.495Z,76.85
2019-05-26T22:40:01.593Z,77.36
2019-05-26T22:45:01.723Z,77.15
2019-05-26T22:50:01.867Z,77.32
2019-05-26T22:55:01.983Z,77.94
2019-05-26T23:00:01.085Z,78.01
2019-05-26T23:05:01.235Z,79
2019-05-26T23:10:02.940Z,79
2019-05-26T23:20:01.459Z,80.95
2019-05-26T23:25:01.704Z,82.53
2019-05-26T23:30:01.822Z,83.13
2019-05-26T23:35:02.129Z,83.54
2019-05-26T23:40:01.248Z,84.05
2019-05-26T23:45:01.415Z,84.7
2019-05-26T23:50:01.520Z,86.14
2019-05-26T23:55:01.662Z,86.32
